sensor_id;sensor_type;location;lat;lon;timestamp;P1;durP1;ratioP1;P2;durP2;ratioP2
34007;SDS011;41085;51.594;7.138;2022-10-16T00:00:47;0.45;;;0.25;;
34007;SDS011;41085;51.594;7.138;2022-10-16T00:04:48;1.00;;;0.60;;
34007;SDS011;41085;51.594;7.138;2022-10-16T00:08:49;0.33;;;0.20;;
34007;SDS011;41085;51.594;7.138;2022-10-16T00:12:50;0.15;;;0.10;;
34007;SDS011;41085;51.594;7.138;2022-10-16T00:16:51;0.45;;;0.30;;
34007;SDS011;41085;51.594;7.138;2022-10-16T00:20:51;1.60;;;0.20;;
34007;SDS011;41085;51.594;7.138;2022-10-16T00:24:52;0.40;;;0.20;;
34007;SDS011;41085;51.594;7.138;2022-10-16T00:28:52;1.30;;;0.17;;
34007;SDS011;41085;51.594;7.138;2022-10-16T00:32:53;0.27;;;0.07;;
34007;SDS011;41085;51.594;7.138;2022-10-16T00:36:54;0.22;;;0.10;;
34007;SDS011;41085;51.594;7.138;2022-10-16T00:40:54;0.53;;;0.20;;
34007;SDS011;41085;51.594;7.138;2022-10-16T00:44:56;0.47;;;0.30;;
34007;SDS011;41085;51.594;7.138;2022-10-16T00:53:05;3.63;;;0.30;;
34007;SDS011;41085;51.594;7.138;2022-10-16T00:57:06;2.80;;;0.45;;
34007;SDS011;41085;51.594;7.138;2022-10-16T01:01:07;0.40;;;0.10;;
34007;SDS011;41085;51.594;7.138;2022-10-16T01:05:08;0.60;;;0.10;;
34007;SDS011;41085;51.594;7.138;2022-10-16T01:09:14;0.10;;;0.10;;
34007;SDS011;41085;51.594;7.138;2022-10-16T01:13:32;0.55;;;0.10;;
34007;SDS011;41085;51.594;7.138;2022-10-16T01:17:43;1.00;;;0.30;;
34007;SDS011;41085;51.594;7.138;2022-10-16T01:21:49;0.10;;;0.10;;
34007;SDS011;41085;51.594;7.138;2022-10-16T01:26:09;0.08;;;0.08;;
34007;SDS011;41085;51.594;7.138;2022-10-16T01:30:17;1.80;;;0.23;;
34007;SDS011;41085;51.594;7.138;2022-10-16T01:34:32;0.90;;;0.17;;
34007;SDS011;41085;51.594;7.138;2022-10-16T01:38:46;0.10;;;0.10;;
34007;SDS011;41085;51.594;7.138;2022-10-16T01:42:51;0.40;;;0.20;;
34007;SDS011;41085;51.594;7.138;2022-10-16T01:46:56;0.45;;;0.10;;
34007;SDS011;41085;51.594;7.138;2022-10-16T01:51:00;0.30;;;0.15;;
34007;SDS011;41085;51.594;7.138;2022-10-16T01:55:05;0.77;;;0.10;;
34007;SDS011;41085;51.594;7.138;2022-10-16T02:03:42;0.20;;;0.20;;
34007;SDS011;41085;51.594;7.138;2022-10-16T02:08:11;0.43;;;0.40;;
34007;SDS011;41085;51.594;7.138;2022-10-16T02:12:25;0.20;;;0.20;;
34007;SDS011;41085;51.594;7.138;2022-10-16T02:16:47;0.20;;;0.20;;
34007;SDS011;41085;51.594;7.138;2022-10-16T02:20:54;0.30;;;0.20;;
34007;SDS011;41085;51.594;7.138;2022-10-16T02:25:32;0.50;;;0.15;;
34007;SDS011;41085;51.594;7.138;2022-10-16T02:29:41;0.80;;;0.25;;
34007;SDS011;41085;51.594;7.138;2022-10-16T02:33:48;0.28;;;0.10;;
34007;SDS011;41085;51.594;7.138;2022-10-16T02:37:51;0.40;;;0.20;;
34007;SDS011;41085;51.594;7.138;2022-10-16T02:41:52;0.70;;;0.10;;
34007;SDS011;41085;51.594;7.138;2022-10-16T02:45:53;0.80;;;0.20;;
34007;SDS011;41085;51.594;7.138;2022-10-16T02:49:57;0.10;;;0.08;;
34007;SDS011;41085;51.594;7.138;2022-10-16T02:54:01;0.40;;;0.20;;
34007;SDS011;41085;51.594;7.138;2022-10-16T02:58:02;0.20;;;0.10;;
34007;SDS011;41085;51.594;7.138;2022-10-16T03:02:03;0.20;;;0.10;;
34007;SDS011;41085;51.594;7.138;2022-10-16T03:06:06;0.20;;;0.10;;
34007;SDS011;41085;51.594;7.138;2022-10-16T03:10:07;1.80;;;0.20;;
34007;SDS011;41085;51.594;7.138;2022-10-16T03:14:08;0.80;;;0.20;;
34007;SDS011;41085;51.594;7.138;2022-10-16T03:18:09;0.90;;;0.10;;
34007;SDS011;41085;51.594;7.138;2022-10-16T03:22:09;0.70;;;0.20;;
34007;SDS011;41085;51.594;7.138;2022-10-16T03:26:10;0.60;;;0.20;;
34007;SDS011;41085;51.594;7.138;2022-10-16T03:30:10;1.90;;;0.10;;
34007;SDS011;41085;51.594;7.138;2022-10-16T03:34:11;1.00;;;0.10;;
34007;SDS011;41085;51.594;7.138;2022-10-16T03:38:12;1.00;;;0.10;;
34007;SDS011;41085;51.594;7.138;2022-10-16T03:42:13;0.17;;;0.17;;
34007;SDS011;41085;51.594;7.138;2022-10-16T03:46:13;0.47;;;0.10;;
34007;SDS011;41085;51.594;7.138;2022-10-16T03:50:14;0.47;;;0.20;;
34007;SDS011;41085;51.594;7.138;2022-10-16T03:54:15;1.77;;;0.20;;
34007;SDS011;41085;51.594;7.138;2022-10-16T03:58:16;1.10;;;0.20;;
34007;SDS011;41085;51.594;7.138;2022-10-16T04:02:17;0.30;;;0.10;;
34007;SDS011;41085;51.594;7.138;2022-10-16T04:06:17;1.20;;;0.20;;
34007;SDS011;41085;51.594;7.138;2022-10-16T04:10:18;0.10;;;0.10;;
34007;SDS011;41085;51.594;7.138;2022-10-16T04:14:19;0.50;;;0.00;;
34007;SDS011;41085;51.594;7.138;2022-10-16T04:18:19;0.90;;;0.23;;
34007;SDS011;41085;51.594;7.138;2022-10-16T04:22:20;0.10;;;0.00;;
34007;SDS011;41085;51.594;7.138;2022-10-16T04:26:20;0.20;;;0.10;;
34007;SDS011;41085;51.594;7.138;2022-10-16T04:30:21;1.20;;;0.10;;
34007;SDS011;41085;51.594;7.138;2022-10-16T04:34:28;0.65;;;0.20;;
34007;SDS011;41085;51.594;7.138;2022-10-16T04:38:35;2.43;;;0.20;;
34007;SDS011;41085;51.594;7.138;2022-10-16T04:42:42;1.30;;;0.30;;
34007;SDS011;41085;51.594;7.138;2022-10-16T04:46:46;0.20;;;0.20;;
34007;SDS011;41085;51.594;7.138;2022-10-16T04:50:46;0.30;;;0.17;;
34007;SDS011;41085;51.594;7.138;2022-10-16T04:54:47;3.28;;;0.10;;
34007;SDS011;41085;51.594;7.138;2022-10-16T04:58:54;1.33;;;0.30;;
34007;SDS011;41085;51.594;7.138;2022-10-16T05:03:00;0.28;;;0.10;;
34007;SDS011;41085;51.594;7.138;2022-10-16T05:07:01;0.40;;;0.10;;
34007;SDS011;41085;51.594;7.138;2022-10-16T05:11:02;0.57;;;0.22;;
34007;SDS011;41085;51.594;7.138;2022-10-16T05:15:04;0.25;;;0.20;;
34007;SDS011;41085;51.594;7.138;2022-10-16T05:19:05;5.28;;;0.30;;
34007;SDS011;41085;51.594;7.138;2022-10-16T05:23:06;2.45;;;0.05;;
34007;SDS011;41085;51.594;7.138;2022-10-16T05:27:06;0.10;;;0.10;;
34007;SDS011;41085;51.594;7.138;2022-10-16T05:31:08;0.10;;;0.03;;
34007;SDS011;41085;51.594;7.138;2022-10-16T05:35:09;0.30;;;0.10;;
34007;SDS011;41085;51.594;7.138;2022-10-16T05:39:09;0.57;;;0.20;;
34007;SDS011;41085;51.594;7.138;2022-10-16T05:43:10;0.65;;;0.20;;
34007;SDS011;41085;51.594;7.138;2022-10-16T05:47:12;0.10;;;0.10;;
34007;SDS011;41085;51.594;7.138;2022-10-16T05:51:13;0.30;;;0.17;;
34007;SDS011;41085;51.594;7.138;2022-10-16T05:55:14;0.70;;;0.10;;
34007;SDS011;41085;51.594;7.138;2022-10-16T05:59:15;0.40;;;0.10;;
34007;SDS011;41085;51.594;7.138;2022-10-16T06:03:16;0.10;;;0.10;;
34007;SDS011;41085;51.594;7.138;2022-10-16T06:07:16;0.23;;;0.07;;
34007;SDS011;41085;51.594;7.138;2022-10-16T06:11:18;0.40;;;0.10;;
34007;SDS011;41085;51.594;7.138;2022-10-16T06:15:21;0.20;;;0.10;;
34007;SDS011;41085;51.594;7.138;2022-10-16T06:19:22;1.27;;;0.10;;
34007;SDS011;41085;51.594;7.138;2022-10-16T06:23:23;0.10;;;0.10;;
34007;SDS011;41085;51.594;7.138;2022-10-16T06:27:24;0.60;;;0.20;;
34007;SDS011;41085;51.594;7.138;2022-10-16T06:31:24;0.10;;;0.10;;
34007;SDS011;41085;51.594;7.138;2022-10-16T06:35:27;0.10;;;0.03;;
34007;SDS011;41085;51.594;7.138;2022-10-16T06:39:29;0.50;;;0.10;;
34007;SDS011;41085;51.594;7.138;2022-10-16T06:43:30;0.50;;;0.10;;
34007;SDS011;41085;51.594;7.138;2022-10-16T06:47:40;0.00;;;0.00;;
34007;SDS011;41085;51.594;7.138;2022-10-16T06:51:40;0.30;;;0.10;;
34007;SDS011;41085;51.594;7.138;2022-10-16T06:55:47;0.20;;;0.10;;
34007;SDS011;41085;51.594;7.138;2022-10-16T06:59:48;0.00;;;0.00;;
34007;SDS011;41085;51.594;7.138;2022-10-16T07:03:49;0.17;;;0.08;;
34007;SDS011;41085;51.594;7.138;2022-10-16T07:07:53;0.40;;;0.15;;
34007;SDS011;41085;51.594;7.138;2022-10-16T07:11:53;0.50;;;0.10;;
34007;SDS011;41085;51.594;7.138;2022-10-16T07:15:54;0.00;;;0.00;;
34007;SDS011;41085;51.594;7.138;2022-10-16T07:19:55;0.00;;;0.00;;
34007;SDS011;41085;51.594;7.138;2022-10-16T07:23:56;0.00;;;0.00;;
34007;SDS011;41085;51.594;7.138;2022-10-16T07:27:59;0.10;;;0.00;;
34007;SDS011;41085;51.594;7.138;2022-10-16T07:31:59;0.97;;;0.07;;
34007;SDS011;41085;51.594;7.138;2022-10-16T07:36:01;0.10;;;0.10;;
34007;SDS011;41085;51.594;7.138;2022-10-16T07:40:06;0.10;;;0.10;;
34007;SDS011;41085;51.594;7.138;2022-10-16T07:44:15;0.00;;;0.00;;
34007;SDS011;41085;51.594;7.138;2022-10-16T07:48:16;1.20;;;0.00;;
34007;SDS011;41085;51.594;7.138;2022-10-16T07:52:17;0.20;;;0.10;;
34007;SDS011;41085;51.594;7.138;2022-10-16T07:56:21;0.40;;;0.10;;
34007;SDS011;41085;51.594;7.138;2022-10-16T08:01:04;0.00;;;0.00;;
34007;SDS011;41085;51.594;7.138;2022-10-16T08:05:26;0.10;;;0.05;;
34007;SDS011;41085;51.594;7.138;2022-10-16T08:09:27;0.10;;;0.00;;
34007;SDS011;41085;51.594;7.138;2022-10-16T08:13:28;0.00;;;0.00;;
34007;SDS011;41085;51.594;7.138;2022-10-16T08:17:28;0.70;;;0.00;;
34007;SDS011;41085;51.594;7.138;2022-10-16T08:21:29;0.20;;;0.10;;
34007;SDS011;41085;51.594;7.138;2022-10-16T08:25:29;0.00;;;0.00;;
34007;SDS011;41085;51.594;7.138;2022-10-16T08:29:30;0.47;;;0.00;;
34007;SDS011;41085;51.594;7.138;2022-10-16T08:33:31;0.00;;;0.00;;
34007;SDS011;41085;51.594;7.138;2022-10-16T08:37:32;0.30;;;0.10;;
34007;SDS011;41085;51.594;7.138;2022-10-16T08:50:38;0.20;;;0.10;;
34007;SDS011;41085;51.594;7.138;2022-10-16T08:54:44;0.00;;;0.00;;
34007;SDS011;41085;51.594;7.138;2022-10-16T08:58:49;0.10;;;0.00;;
34007;SDS011;41085;51.594;7.138;2022-10-16T09:03:04;0.40;;;0.00;;
34007;SDS011;41085;51.594;7.138;2022-10-16T09:11:46;0.10;;;0.00;;
34007;SDS011;41085;51.594;7.138;2022-10-16T09:20:32;0.13;;;0.10;;
34007;SDS011;41085;51.594;7.138;2022-10-16T09:24:41;0.00;;;0.00;;
34007;SDS011;41085;51.594;7.138;2022-10-16T09:28:41;0.10;;;0.00;;
34007;SDS011;41085;51.594;7.138;2022-10-16T09:32:42;0.05;;;0.05;;
34007;SDS011;41085;51.594;7.138;2022-10-16T09:36:44;0.00;;;0.00;;
34007;SDS011;41085;51.594;7.138;2022-10-16T09:40:47;0.30;;;0.10;;
34007;SDS011;41085;51.594;7.138;2022-10-16T09:44:48;0.30;;;0.10;;
34007;SDS011;41085;51.594;7.138;2022-10-16T09:48:51;0.20;;;0.10;;
34007;SDS011;41085;51.594;7.138;2022-10-16T09:53:04;0.00;;;0.00;;
34007;SDS011;41085;51.594;7.138;2022-10-16T09:57:12;0.23;;;0.10;;
34007;SDS011;41085;51.594;7.138;2022-10-16T10:02:04;0.10;;;0.10;;
34007;SDS011;41085;51.594;7.138;2022-10-16T10:05:47;0.00;;;0.00;;
34007;SDS011;41085;51.594;7.138;2022-10-16T10:09:48;0.00;;;0.00;;
34007;SDS011;41085;51.594;7.138;2022-10-16T10:13:51;0.30;;;0.00;;
34007;SDS011;41085;51.594;7.138;2022-10-16T10:17:55;0.07;;;0.07;;
34007;SDS011;41085;51.594;7.138;2022-10-16T10:21:57;0.00;;;0.00;;
34007;SDS011;41085;51.594;7.138;2022-10-16T10:26:11;0.10;;;0.10;;
34007;SDS011;41085;51.594;7.138;2022-10-16T10:30:25;0.00;;;0.00;;
34007;SDS011;41085;51.594;7.138;2022-10-16T10:34:43;0.00;;;0.00;;
34007;SDS011;41085;51.594;7.138;2022-10-16T10:39:04;0.10;;;0.00;;
34007;SDS011;41085;51.594;7.138;2022-10-16T10:56:42;0.50;;;0.10;;
34007;SDS011;41085;51.594;7.138;2022-10-16T11:05:23;0.00;;;0.00;;
34007;SDS011;41085;51.594;7.138;2022-10-16T11:09:36;0.00;;;0.00;;
34007;SDS011;41085;51.594;7.138;2022-10-16T11:18:03;0.00;;;0.00;;
34007;SDS011;41085;51.594;7.138;2022-10-16T11:22:19;0.00;;;0.00;;
34007;SDS011;41085;51.594;7.138;2022-10-16T11:26:35;0.10;;;0.10;;
34007;SDS011;41085;51.594;7.138;2022-10-16T11:30:43;0.70;;;0.10;;
34007;SDS011;41085;51.594;7.138;2022-10-16T11:34:57;0.00;;;0.00;;
34007;SDS011;41085;51.594;7.138;2022-10-16T11:43:22;0.00;;;0.00;;
34007;SDS011;41085;51.594;7.138;2022-10-16T11:47:43;0.03;;;0.03;;
34007;SDS011;41085;51.594;7.138;2022-10-16T11:56:15;0.00;;;0.00;;
34007;SDS011;41085;51.594;7.138;2022-10-16T12:00:23;0.10;;;0.00;;
34007;SDS011;41085;51.594;7.138;2022-10-16T12:09:27;0.00;;;0.00;;
34007;SDS011;41085;51.594;7.138;2022-10-16T12:13:37;0.10;;;0.00;;
34007;SDS011;41085;51.594;7.138;2022-10-16T12:17:42;0.00;;;0.00;;
34007;SDS011;41085;51.594;7.138;2022-10-16T12:21:44;0.00;;;0.00;;
34007;SDS011;41085;51.594;7.138;2022-10-16T12:25:53;0.00;;;0.00;;
34007;SDS011;41085;51.594;7.138;2022-10-16T12:30:07;0.00;;;0.00;;
34007;SDS011;41085;51.594;7.138;2022-10-16T12:34:37;0.10;;;0.00;;
34007;SDS011;41085;51.594;7.138;2022-10-16T12:39:02;0.00;;;0.00;;
34007;SDS011;41085;51.594;7.138;2022-10-16T12:43:11;0.00;;;0.00;;
34007;SDS011;41085;51.594;7.138;2022-10-16T12:47:35;0.00;;;0.00;;
34007;SDS011;41085;51.594;7.138;2022-10-16T12:51:38;0.20;;;0.00;;
34007;SDS011;41085;51.594;7.138;2022-10-16T12:56:03;0.03;;;0.00;;
34007;SDS011;41085;51.594;7.138;2022-10-16T13:04:58;0.10;;;0.00;;
34007;SDS011;41085;51.594;7.138;2022-10-16T13:09:21;0.00;;;0.00;;
34007;SDS011;41085;51.594;7.138;2022-10-16T13:22:21;0.00;;;0.00;;
34007;SDS011;41085;51.594;7.138;2022-10-16T13:26:53;0.00;;;0.00;;
34007;SDS011;41085;51.594;7.138;2022-10-16T13:31:21;0.00;;;0.00;;
34007;SDS011;41085;51.594;7.138;2022-10-16T13:35:32;0.00;;;0.00;;
34007;SDS011;41085;51.594;7.138;2022-10-16T13:39:34;0.00;;;0.00;;
34007;SDS011;41085;51.594;7.138;2022-10-16T13:43:45;0.00;;;0.00;;
34007;SDS011;41085;51.594;7.138;2022-10-16T13:48:22;0.00;;;0.00;;
34007;SDS011;41085;51.594;7.138;2022-10-16T13:52:20;0.00;;;0.00;;
34007;SDS011;41085;51.594;7.138;2022-10-16T13:56:27;0.00;;;0.00;;
34007;SDS011;41085;51.594;7.138;2022-10-16T14:00:30;0.00;;;0.00;;
34007;SDS011;41085;51.594;7.138;2022-10-16T14:04:32;0.03;;;0.00;;
34007;SDS011;41085;51.594;7.138;2022-10-16T14:08:41;0.00;;;0.00;;
34007;SDS011;41085;51.594;7.138;2022-10-16T14:12:54;0.00;;;0.00;;
34007;SDS011;41085;51.594;7.138;2022-10-16T14:17:13;0.30;;;0.10;;
34007;SDS011;41085;51.594;7.138;2022-10-16T14:21:51;0.17;;;0.00;;
34007;SDS011;41085;51.594;7.138;2022-10-16T14:34:33;0.00;;;0.00;;
34007;SDS011;41085;51.594;7.138;2022-10-16T14:38:59;0.00;;;0.00;;
34007;SDS011;41085;51.594;7.138;2022-10-16T14:43:32;0.13;;;0.00;;
34007;SDS011;41085;51.594;7.138;2022-10-16T14:47:56;0.00;;;0.00;;
34007;SDS011;41085;51.594;7.138;2022-10-16T14:52:18;0.00;;;0.00;;
34007;SDS011;41085;51.594;7.138;2022-10-16T14:56:33;0.00;;;0.00;;
34007;SDS011;41085;51.594;7.138;2022-10-16T15:00:55;0.00;;;0.00;;
34007;SDS011;41085;51.594;7.138;2022-10-16T15:04:56;0.10;;;0.00;;
34007;SDS011;41085;51.594;7.138;2022-10-16T15:09:18;0.50;;;0.00;;
34007;SDS011;41085;51.594;7.138;2022-10-16T15:13:29;0.00;;;0.00;;
34007;SDS011;41085;51.594;7.138;2022-10-16T15:17:29;0.00;;;0.00;;
34007;SDS011;41085;51.594;7.138;2022-10-16T15:22:04;0.10;;;0.00;;
34007;SDS011;41085;51.594;7.138;2022-10-16T15:26:10;0.00;;;0.00;;
34007;SDS011;41085;51.594;7.138;2022-10-16T15:30:19;0.00;;;0.00;;
34007;SDS011;41085;51.594;7.138;2022-10-16T15:34:20;0.10;;;0.10;;
34007;SDS011;41085;51.594;7.138;2022-10-16T15:38:21;0.03;;;0.00;;
34007;SDS011;41085;51.594;7.138;2022-10-16T15:42:22;0.00;;;0.00;;
34007;SDS011;41085;51.594;7.138;2022-10-16T15:46:23;0.10;;;0.00;;
34007;SDS011;41085;51.594;7.138;2022-10-16T15:50:24;0.00;;;0.00;;
34007;SDS011;41085;51.594;7.138;2022-10-16T15:54:25;0.00;;;0.00;;
34007;SDS011;41085;51.594;7.138;2022-10-16T15:58:27;0.00;;;0.00;;
34007;SDS011;41085;51.594;7.138;2022-10-16T16:02:28;0.00;;;0.00;;
34007;SDS011;41085;51.594;7.138;2022-10-16T16:06:30;0.00;;;0.00;;
34007;SDS011;41085;51.594;7.138;2022-10-16T16:10:31;0.00;;;0.00;;
34007;SDS011;41085;51.594;7.138;2022-10-16T16:14:31;0.00;;;0.00;;
34007;SDS011;41085;51.594;7.138;2022-10-16T16:18:32;0.00;;;0.00;;
34007;SDS011;41085;51.594;7.138;2022-10-16T16:22:33;0.00;;;0.00;;
34007;SDS011;41085;51.594;7.138;2022-10-16T16:26:34;0.00;;;0.00;;
34007;SDS011;41085;51.594;7.138;2022-10-16T16:30:37;0.00;;;0.00;;
34007;SDS011;41085;51.594;7.138;2022-10-16T16:34:38;0.00;;;0.00;;
34007;SDS011;41085;51.594;7.138;2022-10-16T16:38:46;0.00;;;0.00;;
34007;SDS011;41085;51.594;7.138;2022-10-16T16:42:48;0.00;;;0.00;;
34007;SDS011;41085;51.594;7.138;2022-10-16T16:46:49;0.00;;;0.00;;
34007;SDS011;41085;51.594;7.138;2022-10-16T16:50:50;0.10;;;0.00;;
34007;SDS011;41085;51.594;7.138;2022-10-16T16:54:51;0.00;;;0.00;;
34007;SDS011;41085;51.594;7.138;2022-10-16T16:58:53;0.00;;;0.00;;
34007;SDS011;41085;51.594;7.138;2022-10-16T17:02:55;0.00;;;0.00;;
34007;SDS011;41085;51.594;7.138;2022-10-16T17:06:56;0.00;;;0.00;;
34007;SDS011;41085;51.594;7.138;2022-10-16T17:10:57;0.00;;;0.00;;
34007;SDS011;41085;51.594;7.138;2022-10-16T17:14:57;0.00;;;0.00;;
34007;SDS011;41085;51.594;7.138;2022-10-16T17:18:59;0.00;;;0.00;;
34007;SDS011;41085;51.594;7.138;2022-10-16T17:23:01;0.00;;;0.00;;
34007;SDS011;41085;51.594;7.138;2022-10-16T17:27:01;0.00;;;0.00;;
34007;SDS011;41085;51.594;7.138;2022-10-16T17:31:22;0.00;;;0.00;;
34007;SDS011;41085;51.594;7.138;2022-10-16T17:35:25;0.00;;;0.00;;
34007;SDS011;41085;51.594;7.138;2022-10-16T17:39:25;0.00;;;0.00;;
34007;SDS011;41085;51.594;7.138;2022-10-16T17:43:26;0.00;;;0.00;;
34007;SDS011;41085;51.594;7.138;2022-10-16T17:47:27;0.00;;;0.00;;
34007;SDS011;41085;51.594;7.138;2022-10-16T17:51:29;0.00;;;0.00;;
34007;SDS011;41085;51.594;7.138;2022-10-16T17:55:30;0.20;;;0.00;;
34007;SDS011;41085;51.594;7.138;2022-10-16T17:59:36;0.10;;;0.00;;
34007;SDS011;41085;51.594;7.138;2022-10-16T18:03:36;0.00;;;0.00;;
34007;SDS011;41085;51.594;7.138;2022-10-16T18:07:37;0.00;;;0.00;;
34007;SDS011;41085;51.594;7.138;2022-10-16T18:11:38;0.00;;;0.00;;
34007;SDS011;41085;51.594;7.138;2022-10-16T18:15:38;0.00;;;0.00;;
34007;SDS011;41085;51.594;7.138;2022-10-16T18:19:39;0.00;;;0.00;;
34007;SDS011;41085;51.594;7.138;2022-10-16T18:23:40;0.00;;;0.00;;
34007;SDS011;41085;51.594;7.138;2022-10-16T18:27:40;0.10;;;0.00;;
34007;SDS011;41085;51.594;7.138;2022-10-16T18:31:41;0.00;;;0.00;;
34007;SDS011;41085;51.594;7.138;2022-10-16T18:35:42;0.00;;;0.00;;
34007;SDS011;41085;51.594;7.138;2022-10-16T18:39:46;0.00;;;0.00;;
34007;SDS011;41085;51.594;7.138;2022-10-16T18:43:49;0.00;;;0.00;;
34007;SDS011;41085;51.594;7.138;2022-10-16T18:47:50;0.20;;;0.10;;
34007;SDS011;41085;51.594;7.138;2022-10-16T18:51:51;0.00;;;0.00;;
34007;SDS011;41085;51.594;7.138;2022-10-16T18:55:55;0.00;;;0.00;;
34007;SDS011;41085;51.594;7.138;2022-10-16T18:59:56;0.03;;;0.00;;
34007;SDS011;41085;51.594;7.138;2022-10-16T19:04:01;0.00;;;0.00;;
34007;SDS011;41085;51.594;7.138;2022-10-16T19:08:04;0.10;;;0.00;;
34007;SDS011;41085;51.594;7.138;2022-10-16T19:12:05;0.00;;;0.00;;
34007;SDS011;41085;51.594;7.138;2022-10-16T19:16:25;0.00;;;0.00;;
34007;SDS011;41085;51.594;7.138;2022-10-16T19:20:36;0.00;;;0.00;;
34007;SDS011;41085;51.594;7.138;2022-10-16T19:24:37;0.00;;;0.00;;
34007;SDS011;41085;51.594;7.138;2022-10-16T19:28:38;0.10;;;0.00;;
34007;SDS011;41085;51.594;7.138;2022-10-16T19:32:39;0.00;;;0.00;;
34007;SDS011;41085;51.594;7.138;2022-10-16T19:36:39;0.10;;;0.00;;
34007;SDS011;41085;51.594;7.138;2022-10-16T19:40:40;0.00;;;0.00;;
34007;SDS011;41085;51.594;7.138;2022-10-16T19:44:41;2.90;;;0.00;;
34007;SDS011;41085;51.594;7.138;2022-10-16T19:48:42;0.00;;;0.00;;
34007;SDS011;41085;51.594;7.138;2022-10-16T19:52:43;0.00;;;0.00;;
34007;SDS011;41085;51.594;7.138;2022-10-16T19:56:44;0.00;;;0.00;;
34007;SDS011;41085;51.594;7.138;2022-10-16T20:00:44;0.03;;;0.00;;
34007;SDS011;41085;51.594;7.138;2022-10-16T20:04:45;0.00;;;0.00;;
34007;SDS011;41085;51.594;7.138;2022-10-16T20:08:46;0.13;;;0.10;;
34007;SDS011;41085;51.594;7.138;2022-10-16T20:12:51;0.20;;;0.10;;
34007;SDS011;41085;51.594;7.138;2022-10-16T20:16:51;0.00;;;0.00;;
34007;SDS011;41085;51.594;7.138;2022-10-16T20:20:52;0.20;;;0.10;;
34007;SDS011;41085;51.594;7.138;2022-10-16T20:24:52;0.00;;;0.00;;
34007;SDS011;41085;51.594;7.138;2022-10-16T20:28:53;0.00;;;0.00;;
34007;SDS011;41085;51.594;7.138;2022-10-16T20:32:54;0.00;;;0.00;;
34007;SDS011;41085;51.594;7.138;2022-10-16T20:36:55;0.10;;;0.00;;
34007;SDS011;41085;51.594;7.138;2022-10-16T20:41:01;0.10;;;0.00;;
34007;SDS011;41085;51.594;7.138;2022-10-16T20:45:03;0.00;;;0.00;;
34007;SDS011;41085;51.594;7.138;2022-10-16T20:49:03;0.00;;;0.00;;
34007;SDS011;41085;51.594;7.138;2022-10-16T20:53:05;0.00;;;0.00;;
34007;SDS011;41085;51.594;7.138;2022-10-16T20:57:06;0.00;;;0.00;;
34007;SDS011;41085;51.594;7.138;2022-10-16T21:01:08;0.10;;;0.00;;
34007;SDS011;41085;51.594;7.138;2022-10-16T21:05:11;0.03;;;0.03;;
34007;SDS011;41085;51.594;7.138;2022-10-16T21:09:11;0.00;;;0.00;;
34007;SDS011;41085;51.594;7.138;2022-10-16T21:13:12;0.00;;;0.00;;
34007;SDS011;41085;51.594;7.138;2022-10-16T21:17:12;0.00;;;0.00;;
34007;SDS011;41085;51.594;7.138;2022-10-16T21:21:20;0.00;;;0.00;;
34007;SDS011;41085;51.594;7.138;2022-10-16T21:25:22;0.20;;;0.10;;
34007;SDS011;41085;51.594;7.138;2022-10-16T21:29:23;0.20;;;0.00;;
34007;SDS011;41085;51.594;7.138;2022-10-16T21:33:23;0.23;;;0.10;;
34007;SDS011;41085;51.594;7.138;2022-10-16T21:37:24;0.00;;;0.00;;
34007;SDS011;41085;51.594;7.138;2022-10-16T21:41:26;3.60;;;0.10;;
34007;SDS011;41085;51.594;7.138;2022-10-16T21:45:27;1.10;;;0.00;;
34007;SDS011;41085;51.594;7.138;2022-10-16T21:49:28;1.40;;;0.10;;
34007;SDS011;41085;51.594;7.138;2022-10-16T21:53:28;4.60;;;0.20;;
34007;SDS011;41085;51.594;7.138;2022-10-16T21:57:29;0.25;;;0.10;;
34007;SDS011;41085;51.594;7.138;2022-10-16T22:01:30;0.75;;;0.20;;
34007;SDS011;41085;51.594;7.138;2022-10-16T22:05:34;0.32;;;0.05;;
34007;SDS011;41085;51.594;7.138;2022-10-16T22:09:34;1.15;;;0.25;;
34007;SDS011;41085;51.594;7.138;2022-10-16T22:13:35;2.60;;;0.30;;
34007;SDS011;41085;51.594;7.138;2022-10-16T22:17:36;2.85;;;0.20;;
34007;SDS011;41085;51.594;7.138;2022-10-16T22:21:39;3.27;;;0.20;;
34007;SDS011;41085;51.594;7.138;2022-10-16T22:25:41;0.30;;;0.10;;
34007;SDS011;41085;51.594;7.138;2022-10-16T22:29:42;2.80;;;0.20;;
34007;SDS011;41085;51.594;7.138;2022-10-16T22:33:42;1.85;;;0.50;;
34007;SDS011;41085;51.594;7.138;2022-10-16T22:37:44;0.20;;;0.10;;
34007;SDS011;41085;51.594;7.138;2022-10-16T22:41:44;2.10;;;0.10;;
34007;SDS011;41085;51.594;7.138;2022-10-16T22:45:45;1.77;;;0.20;;
34007;SDS011;41085;51.594;7.138;2022-10-16T22:49:45;2.30;;;0.17;;
34007;SDS011;41085;51.594;7.138;2022-10-16T22:53:47;0.28;;;0.10;;
34007;SDS011;41085;51.594;7.138;2022-10-16T22:57:48;1.40;;;0.20;;
34007;SDS011;41085;51.594;7.138;2022-10-16T23:01:49;1.88;;;0.25;;
34007;SDS011;41085;51.594;7.138;2022-10-16T23:05:50;0.47;;;0.10;;
34007;SDS011;41085;51.594;7.138;2022-10-16T23:09:51;1.40;;;0.10;;
34007;SDS011;41085;51.594;7.138;2022-10-16T23:13:52;1.55;;;0.40;;
34007;SDS011;41085;51.594;7.138;2022-10-16T23:17:53;1.40;;;0.20;;
34007;SDS011;41085;51.594;7.138;2022-10-16T23:21:56;0.57;;;0.30;;
34007;SDS011;41085;51.594;7.138;2022-10-16T23:25:57;0.27;;;0.10;;
34007;SDS011;41085;51.594;7.138;2022-10-16T23:30:49;0.60;;;0.10;;
34007;SDS011;41085;51.594;7.138;2022-10-16T23:34:51;0.60;;;0.10;;
34007;SDS011;41085;51.594;7.138;2022-10-16T23:39:07;0.40;;;0.20;;
34007;SDS011;41085;51.594;7.138;2022-10-16T23:43:26;2.40;;;0.10;;
34007;SDS011;41085;51.594;7.138;2022-10-16T23:47:34;0.20;;;0.10;;
34007;SDS011;41085;51.594;7.138;2022-10-16T23:51:38;0.20;;;0.20;;
34007;SDS011;41085;51.594;7.138;2022-10-16T23:55:55;0.30;;;0.10;;
